Time;durP1;ratioP1;P1;durP2;ratioP2;P2;SDS_P1;SDS_P2;PMS_P1;PMS_P2;Temp;Humidity;BMP_temperature;BMP_pressure;BME280_temperature;BME280_humidity;BME280_pressure;Samples;Min_cycle;Max_cycle;Signal;HPM_P1;HPM_P2
2022/01/20 00:01:41;;;;;;;2.20;2.00;;;8.10;61.00;;;;;;5059588;28;20444;-88
2022/01/20 00:04:16;;;;;;;2.43;2.20;;;8.00;61.40;;;;;;5073664;28;20546;-88
2022/01/20 00:07:25;;;;;;;3.33;2.33;;;7.90;62.00;;;;;;5074420;28;20459;-88
2022/01/20 00:26:29;;;;;;;2.50;2.10;;;7.90;62.30;;;;;;5033631;28;20452;-87
2022/01/20 00:29:00;;;;;;;4.23;2.60;;;7.90;62.80;;;;;;5054171;28;20463;-88
2022/01/20 00:31:40;;;;;;;3.30;2.40;;;7.90;62.90;;;;;;5054938;28;20469;-89
2022/01/20 00:34:19;;;;;;;2.73;2.30;;;8.00;62.40;;;;;;5054271;28;20969;-90
2022/01/20 00:39:31;;;;;;;2.77;2.50;;;7.50;63.60;;;;;;5072428;28;20456;-89
2022/01/20 00:41:59;;;;;;;3.10;2.63;;;7.60;63.50;;;;;;5073289;28;20461;-88
2022/01/20 00:44:28;;;;;;;4.07;3.07;;;7.70;63.50;;;;;;5061651;28;20456;-89
2022/01/20 00:46:55;;;;;;;2.37;2.17;;;7.60;63.40;;;;;;5054724;28;20460;-89
2022/01/20 00:49:22;;;;;;;5.20;2.17;;;7.60;63.80;;;;;;5076400;28;20452;-90
2022/01/20 00:51:51;;;;;;;3.60;2.83;;;7.70;63.90;;;;;;5047805;28;20555;-89
2022/01/20 00:54:18;;;;;;;2.50;2.30;;;7.90;63.60;;;;;;5073338;28;20551;-88
2022/01/20 00:56:45;;;;;;;3.23;2.30;;;8.00;62.70;;;;;;5056357;28;20533;-88
2022/01/20 00:59:12;;;;;;;2.30;2.10;;;8.00;62.70;;;;;;5047244;28;20460;-89
2022/01/20 01:01:41;;;;;;;3.17;2.70;;;8.10;62.50;;;;;;5049214;28;20563;-90
2022/01/20 01:04:08;;;;;;;3.20;2.90;;;8.00;62.60;;;;;;5072027;28;20468;-88
2022/01/20 01:06:53;;;;;;;3.27;2.60;;;7.60;63.00;;;;;;5043203;28;21204;-90
2022/01/20 01:09:20;;;;;;;2.50;2.30;;;7.60;64.10;;;;;;5053521;28;20869;-88
2022/01/20 01:11:49;;;;;;;3.40;2.83;;;7.80;64.10;;;;;;5057962;28;20475;-89
2022/01/20 01:14:18;;;;;;;4.83;2.47;;;8.00;63.40;;;;;;5054500;28;20565;-89
2022/01/20 01:22:22;;;;;;;2.73;2.43;;;8.10;63.20;;;;;;5030239;28;20478;-88
2022/01/20 01:24:52;;;;;;;3.33;2.70;;;8.30;62.50;;;;;;5055599;28;20469;-87
2022/01/20 01:27:20;;;;;;;4.83;2.80;;;8.20;62.30;;;;;;5055896;28;20464;-88
2022/01/20 01:30:04;;;;;;;2.80;2.00;;;8.30;62.30;;;;;;5064608;28;20462;-88
2022/01/20 01:32:43;;;;;;;4.67;3.60;;;8.40;62.30;;;;;;5066082;28;20497;-88
2022/01/20 01:35:11;;;;;;;5.47;3.33;;;8.40;62.30;;;;;;5041243;28;20635;-89
2022/01/20 01:40:19;;;;;;;3.20;2.90;;;8.60;61.60;;;;;;5040661;28;20448;-89
2022/01/20 01:42:49;;;;;;;3.40;2.90;;;8.50;61.90;;;;;;5058047;28;20479;-88
2022/01/20 01:45:19;;;;;;;2.73;2.40;;;8.60;61.80;;;;;;5056804;28;20466;-88
2022/01/20 01:47:48;;;;;;;3.50;3.20;;;8.60;62.10;;;;;;5073271;28;20454;-88
2022/01/20 01:50:20;;;;;;;3.60;3.27;;;8.70;62.20;;;;;;5054978;28;20464;-88
2022/01/20 01:52:48;;;;;;;2.70;2.50;;;8.60;61.90;;;;;;5039018;28;20480;-88
2022/01/20 01:55:15;;;;;;;3.50;2.70;;;8.60;61.90;;;;;;5055579;28;20457;-89
2022/01/20 01:57:44;;;;;;;5.97;3.83;;;8.70;61.70;;;;;;5061088;28;20464;-88
2022/01/20 02:00:15;;;;;;;4.60;3.60;;;8.50;62.10;;;;;;5057409;28;20940;-89
2022/01/20 02:02:48;;;;;;;4.10;3.70;;;8.30;63.00;;;;;;5057141;28;20476;-87
2022/01/20 02:05:31;;;;;;;3.17;2.87;;;8.40;63.20;;;;;;5059226;28;20817;-88
2022/01/20 02:08:32;;;;;;;6.77;4.50;;;8.50;62.60;;;;;;5054052;28;20960;-90
2022/01/20 02:19:28;;;;;;;6.07;4.40;;;8.70;62.40;;;;;;5063392;28;20452;-88
2022/01/20 02:22:23;;;;;;;5.63;4.43;;;8.20;63.10;;;;;;5059318;28;20515;-87
2022/01/20 02:25:19;;;;;;;5.63;4.50;;;8.20;63.50;;;;;;5042494;28;20483;-88
2022/01/20 02:27:46;;;;;;;6.77;4.60;;;8.30;63.20;;;;;;5043950;28;20811;-89
2022/01/20 02:30:15;;;;;;;6.90;4.30;;;8.20;63.30;;;;;;5033339;28;20452;-88
2022/01/20 02:32:43;;;;;;;6.40;5.00;;;8.10;63.80;;;;;;5068630;28;20471;-87
2022/01/20 02:35:12;;;;;;;7.77;4.90;;;8.10;63.80;;;;;;5062293;28;20736;-89
2022/01/20 02:37:45;;;;;;;6.20;4.93;;;8.20;63.40;;;;;;5058608;28;20452;-89
2022/01/20 02:40:34;;;;;;;8.33;5.97;;;8.20;63.50;;;;;;5080132;28;20462;-89
2022/01/20 02:45:46;;;;;;;9.10;4.57;;;8.20;63.50;;;;;;5064920;28;20443;-88
2022/01/20 02:48:14;;;;;;;8.17;5.00;;;8.40;63.40;;;;;;5049779;28;20513;-89
2022/01/20 02:50:41;;;;;;;7.87;5.77;;;8.50;62.80;;;;;;5077113;28;20538;-90
2022/01/20 02:53:10;;;;;;;7.33;4.87;;;8.70;62.60;;;;;;5058870;28;20533;-89
2022/01/20 02:55:37;;;;;;;5.50;4.73;;;8.60;62.30;;;;;;5077088;28;20461;-89
2022/01/20 02:58:04;;;;;;;6.17;4.87;;;8.50;62.30;;;;;;5057732;28;20618;-91
2022/01/20 03:00:33;;;;;;;8.33;4.33;;;8.70;62.20;;;;;;5066296;28;20452;-87
2022/01/20 03:03:01;;;;;;;6.40;4.27;;;8.80;61.70;;;;;;5060540;28;20465;-87
2022/01/20 03:05:30;;;;;;;7.27;4.27;;;8.70;61.80;;;;;;5060617;28;20461;-88
2022/01/20 03:08:01;;;;;;;4.77;4.37;;;8.70;61.90;;;;;;5060884;28;20445;-89
2022/01/20 03:10:31;;;;;;;7.50;5.27;;;8.70;61.80;;;;;;5062249;28;20454;-91
2022/01/20 03:12:58;;;;;;;7.53;4.97;;;8.80;61.60;;;;;;5048809;28;20480;-89
2022/01/20 03:15:26;;;;;;;8.10;4.23;;;8.80;61.50;;;;;;5053744;28;20812;-90
2022/01/20 03:17:53;;;;;;;6.77;4.43;;;8.70;61.50;;;;;;5035033;28;20805;-89
2022/01/20 03:20:20;;;;;;;12.50;5.40;;;8.60;61.70;;;;;;5034535;28;20494;-89
2022/01/20 03:22:47;;;;;;;6.60;4.00;;;8.40;61.90;;;;;;5070204;28;20504;-88
2022/01/20 03:25:14;;;;;;;9.10;4.60;;;8.50;62.00;;;;;;5050563;28;20491;-90
2022/01/20 03:27:43;;;;;;;5.57;4.53;;;8.40;61.90;;;;;;5041267;28;20456;-89
2022/01/20 03:30:11;;;;;;;6.40;4.53;;;8.40;62.20;;;;;;5043248;28;20456;-88
2022/01/20 03:32:39;;;;;;;18.83;4.90;;;8.40;62.40;;;;;;5056504;28;20468;-88
2022/01/20 03:35:07;;;;;;;5.80;3.93;;;8.30;62.30;;;;;;5061668;28;20555;-91
2022/01/20 03:37:35;;;;;;;5.10;4.40;;;8.50;62.30;;;;;;5049568;28;20518;-89
2022/01/20 03:40:06;;;;;;;7.50;4.70;;;8.40;62.00;;;;;;5059887;28;20484;-89
2022/01/20 03:42:33;;;;;;;6.83;5.00;;;8.40;62.00;;;;;;5042203;28;20834;-88
2022/01/20 03:45:03;;;;;;;11.23;4.80;;;8.40;61.90;;;;;;5059849;28;20459;-89
2022/01/20 03:47:30;;;;;;;4.67;3.83;;;8.60;61.90;;;;;;5059082;28;20452;-89
2022/01/20 03:50:08;;;;;;;8.00;4.57;;;8.60;61.40;;;;;;5074421;28;20455;-89
2022/01/20 03:52:36;;;;;;;7.30;4.20;;;8.50;61.50;;;;;;5077435;28;20567;-89
2022/01/20 03:55:04;;;;;;;4.67;3.53;;;8.70;61.30;;;;;;5059907;28;20969;-88
2022/01/20 03:57:47;;;;;;;6.47;4.53;;;8.80;61.00;;;;;;5062182;28;20492;-89
2022/01/20 04:00:36;;;;;;;6.93;4.20;;;8.80;60.90;;;;;;5044870;28;20804;-90
2022/01/20 04:03:38;;;;;;;8.70;5.37;;;8.70;61.00;;;;;;5037383;28;20468;-88
2022/01/20 04:06:16;;;;;;;5.43;4.30;;;8.50;61.40;;;;;;5059889;28;20461;-88
2022/01/20 04:08:47;;;;;;;9.90;5.00;;;8.70;61.40;;;;;;5040421;28;20488;-88
2022/01/20 04:11:16;;;;;;;5.33;4.00;;;8.60;61.30;;;;;;5066271;28;20471;-89
2022/01/20 04:13:45;;;;;;;10.13;5.37;;;8.60;61.60;;;;;;5057200;28;20503;-89
2022/01/20 04:16:34;;;;;;;7.33;4.17;;;8.60;61.70;;;;;;5028011;28;20456;-89
2022/01/20 04:19:04;;;;;;;7.67;4.80;;;8.50;62.10;;;;;;5064606;28;20467;-88
2022/01/20 04:21:32;;;;;;;11.87;5.37;;;8.50;62.60;;;;;;5059462;28;20740;-88
2022/01/20 04:24:01;;;;;;;10.40;5.47;;;8.60;62.80;;;;;;5077792;28;20474;-88
2022/01/20 04:26:31;;;;;;;6.63;3.60;;;8.50;62.60;;;;;;5048450;28;20887;-89
2022/01/20 04:28:58;;;;;;;9.80;3.47;;;8.10;62.70;;;;;;5054964;28;20488;-88
2022/01/20 04:31:34;;;;;;;6.63;3.60;;;7.90;63.30;;;;;;5058770;28;20480;-88
2022/01/20 04:34:02;;;;;;;7.50;4.03;;;8.10;63.50;;;;;;5043318;28;20550;-88
2022/01/20 04:36:32;;;;;;;5.90;3.97;;;8.30;63.00;;;;;;5058530;28;20460;-89
2022/01/20 04:39:03;;;;;;;10.30;4.97;;;8.50;62.40;;;;;;5041192;28;20455;-88
2022/01/20 04:41:31;;;;;;;7.40;4.57;;;8.50;62.00;;;;;;5060310;28;20499;-89
2022/01/20 04:44:03;;;;;;;8.57;4.07;;;8.60;62.00;;;;;;5057701;28;20468;-87
2022/01/20 04:46:38;;;;;;;7.40;4.63;;;8.60;61.70;;;;;;5048173;28;20989;-90
2022/01/20 04:57:00;;;;;;;6.40;4.20;;;8.50;61.80;;;;;;5046307;28;20458;-89
2022/01/20 04:57:22;;;;;;;4.67;3.37;;;8.30;61.80;;;;;;5058379;28;20835;-89
2022/01/20 04:59:51;;;;;;;9.43;4.03;;;8.40;61.80;;;;;;5067417;28;20452;-89
2022/01/20 05:02:24;;;;;;;7.70;4.20;;;8.50;61.60;;;;;;5040675;28;20482;-88
2022/01/20 05:04:57;;;;;;;4.40;3.30;;;8.60;61.10;;;;;;5058597;28;20860;-89
2022/01/20 05:07:42;;;;;;;6.40;3.37;;;8.60;60.70;;;;;;5043187;28;20998;-90
2022/01/20 05:10:12;;;;;;;7.03;4.00;;;8.60;61.00;;;;;;5049279;28;20606;-89
2022/01/20 05:13:03;;;;;;;3.33;2.70;;;8.60;60.50;;;;;;5044764;28;20482;-89
2022/01/20 05:15:32;;;;;;;6.50;4.13;;;8.60;60.30;;;;;;5049531;28;20448;-89
2022/01/20 05:18:01;;;;;;;5.20;2.80;;;8.70;60.10;;;;;;5057306;28;20492;-89
2022/01/20 05:20:29;;;;;;;8.57;4.00;;;8.80;59.50;;;;;;5062204;28;20519;-89
2022/01/20 05:22:57;;;;;;;13.63;4.77;;;8.70;59.60;;;;;;5045332;28;20468;-89
2022/01/20 05:25:27;;;;;;;10.00;5.20;;;8.60;59.40;;;;;;5046166;28;20455;-89
2022/01/20 05:27:54;;;;;;;11.70;5.83;;;8.40;59.90;;;;;;5039811;28;20448;-90
2022/01/20 05:30:21;;;;;;;8.40;5.00;;;8.50;60.30;;;;;;5064821;28;20539;-88
2022/01/20 05:33:09;;;;;;;11.17;5.33;;;8.50;60.20;;;;;;5054104;28;20476;-89
2022/01/20 05:35:36;;;;;;;20.13;5.03;;;8.20;60.80;;;;;;5059960;28;20452;-90
2022/01/20 05:38:04;;;;;;;11.30;5.20;;;8.00;61.10;;;;;;5046382;28;20568;-89
2022/01/20 05:40:31;;;;;;;9.10;4.90;;;8.00;61.00;;;;;;5076131;28;20455;-88
2022/01/20 05:42:58;;;;;;;6.63;4.00;;;8.00;61.40;;;;;;5045969;28;20529;-89
2022/01/20 05:45:27;;;;;;;11.10;5.10;;;8.00;61.20;;;;;;5059680;28;20513;-88
2022/01/20 05:48:01;;;;;;;13.80;5.07;;;8.00;61.70;;;;;;5042125;28;20625;-90
2022/01/20 05:50:48;;;;;;;18.07;5.10;;;8.20;61.20;;;;;;5074631;28;20936;-90
2022/01/20 05:53:15;;;;;;;10.80;4.37;;;8.10;61.00;;;;;;5048461;28;20529;-89
2022/01/20 05:55:42;;;;;;;15.17;5.20;;;8.10;61.40;;;;;;5074389;28;20564;-89
2022/01/20 05:58:09;;;;;;;19.27;5.50;;;8.10;60.80;;;;;;5073988;28;20488;-88
2022/01/20 06:00:38;;;;;;;9.83;4.80;;;7.90;61.70;;;;;;5049117;28;20459;-91
2022/01/20 06:05:53;;;;;;;12.63;4.70;;;8.10;61.00;;;;;;5062367;28;21120;-88
2022/01/20 06:08:20;;;;;;;18.00;5.90;;;8.10;61.00;;;;;;5044357;28;20484;-88
2022/01/20 06:10:48;;;;;;;17.70;5.03;;;8.20;60.90;;;;;;5040860;28;20460;-89
2022/01/20 06:13:22;;;;;;;12.13;5.60;;;8.10;61.20;;;;;;5049783;28;20491;-89
2022/01/20 06:15:49;;;;;;;33.00;17.90;;;8.20;61.20;;;;;;5028747;28;20461;-88
2022/01/20 06:18:17;;;;;;;24.50;14.93;;;8.30;60.60;;;;;;5048273;28;21175;-90
2022/01/20 06:20:52;;;;;;;14.87;5.53;;;8.40;60.80;;;;;;5053441;28;20476;-89
2022/01/20 06:23:21;;;;;;;18.00;7.80;;;8.30;61.00;;;;;;5062237;28;20467;-86
2022/01/20 06:25:49;;;;;;;24.90;8.60;;;8.40;60.60;;;;;;5069525;28;20458;-88
2022/01/20 06:28:17;;;;;;;12.80;8.50;;;8.20;60.70;;;;;;5063582;28;20517;-88
2022/01/20 06:30:44;;;;;;;18.27;10.87;;;8.10;61.00;;;;;;5077448;28;20462;-90
2022/01/20 06:33:11;;;;;;;8.90;4.50;;;8.10;61.00;;;;;;5044257;28;20483;-89
2022/01/20 06:35:44;;;;;;;9.00;4.40;;;7.90;60.30;;;;;;5048262;28;20534;-89
2022/01/20 06:38:13;;;;;;;14.83;4.33;;;8.00;61.00;;;;;;5058391;28;20547;-89
2022/01/20 06:40:40;;;;;;;13.93;5.10;;;7.90;61.00;;;;;;5043845;28;20542;-89
2022/01/20 06:43:07;;;;;;;12.13;5.70;;;8.00;61.00;;;;;;5056622;28;20476;-89
2022/01/20 06:45:35;;;;;;;14.37;6.47;;;8.20;60.60;;;;;;5059256;28;20476;-88
2022/01/20 06:48:08;;;;;;;13.27;5.33;;;8.30;60.40;;;;;;5051190;28;20830;-90
2022/01/20 06:50:42;;;;;;;9.73;4.67;;;8.30;60.30;;;;;;5056522;28;20929;-90
2022/01/20 06:53:09;;;;;;;5.90;3.33;;;8.20;60.70;;;;;;5054597;28;20573;-90
2022/01/20 06:55:38;;;;;;;12.60;5.20;;;8.30;60.80;;;;;;5062363;28;20504;-88
2022/01/20 06:58:05;;;;;;;12.77;5.40;;;8.40;60.50;;;;;;5046244;28;20451;-88
2022/01/20 07:00:33;;;;;;;17.10;5.97;;;8.50;59.80;;;;;;5036629;28;20440;-87
2022/01/20 07:03:00;;;;;;;9.33;5.87;;;8.30;60.10;;;;;;5043164;28;20995;-90
2022/01/20 07:05:27;;;;;;;16.40;6.30;;;8.20;60.60;;;;;;5030237;28;20460;-88
2022/01/20 07:07:54;;;;;;;10.03;4.40;;;8.10;60.40;;;;;;5061716;28;20495;-90
2022/01/20 07:10:24;;;;;;;19.73;5.30;;;8.20;60.50;;;;;;5055318;28;20462;-90
2022/01/20 07:12:57;;;;;;;7.30;3.47;;;8.30;60.40;;;;;;5028364;28;20508;-88
2022/01/20 07:15:24;;;;;;;19.57;4.87;;;8.00;60.30;;;;;;5041862;28;20460;-88
2022/01/20 07:17:52;;;;;;;8.27;3.77;;;7.90;61.50;;;;;;5055231;28;20456;-89
2022/01/20 07:20:24;;;;;;;7.30;3.27;;;7.90;61.90;;;;;;5058965;28;20466;-89
2022/01/20 07:23:05;;;;;;;14.13;4.10;;;8.10;61.60;;;;;;5054228;28;20934;-90
2022/01/20 07:25:37;;;;;;;8.77;4.30;;;8.10;61.30;;;;;;5057381;28;20556;-89
2022/01/20 07:28:10;;;;;;;7.40;3.87;;;8.30;61.70;;;;;;5027523;28;20451;-90
2022/01/20 07:30:38;;;;;;;11.03;3.07;;;8.50;60.70;;;;;;5062728;28;20460;-92
2022/01/20 07:33:05;;;;;;;11.73;4.93;;;8.40;60.40;;;;;;5060062;28;20480;-90
2022/01/20 07:35:33;;;;;;;5.73;3.33;;;8.40;60.40;;;;;;5048259;28;20459;-87
2022/01/20 07:38:00;;;;;;;8.20;4.50;;;8.20;60.40;;;;;;5041123;28;20543;-88
2022/01/20 07:40:29;;;;;;;9.67;4.03;;;8.20;60.60;;;;;;5046345;28;20467;-91
2022/01/20 07:42:56;;;;;;;14.13;3.53;;;8.10;60.80;;;;;;5052876;28;20554;-87
2022/01/20 07:45:46;;;;;;;8.67;3.30;;;7.80;61.00;;;;;;5028012;28;20455;-90
2022/01/20 07:48:34;;;;;;;16.40;7.33;;;7.70;60.80;;;;;;5059757;28;20974;-89
2022/01/20 07:51:07;;;;;;;8.37;3.93;;;7.70;61.80;;;;;;5042238;28;20478;-90
2022/01/20 07:53:37;;;;;;;11.63;5.37;;;7.70;61.60;;;;;;5036910;28;20560;-89
2022/01/20 07:56:05;;;;;;;9.90;4.40;;;7.70;61.60;;;;;;5058798;28;20556;-89
2022/01/20 07:58:32;;;;;;;7.30;4.03;;;7.70;61.70;;;;;;5044087;28;20455;-86
2022/01/20 08:01:01;;;;;;;11.63;5.57;;;7.70;61.90;;;;;;5053344;28;20492;-89
2022/01/20 08:03:30;;;;;;;7.00;3.83;;;7.80;61.40;;;;;;5046253;28;20463;-89
2022/01/20 08:06:11;;;;;;;5.33;3.70;;;8.00;61.10;;;;;;5055367;28;20463;-90
2022/01/20 08:08:42;;;;;;;7.57;3.87;;;8.00;61.40;;;;;;5055341;28;20475;-88
2022/01/20 08:11:28;;;;;;;4.17;2.37;;;8.00;61.30;;;;;;5053508;28;20460;-88
2022/01/20 08:14:04;;;;;;;8.70;2.83;;;7.80;61.30;;;;;;5057400;28;20472;-89
2022/01/20 08:16:32;;;;;;;10.47;2.50;;;7.70;61.90;;;;;;5073724;28;20484;-89
2022/01/20 08:19:00;;;;;;;6.40;2.50;;;7.60;62.00;;;;;;5045751;28;20535;-90
2022/01/20 08:21:27;;;;;;;8.40;4.13;;;7.60;62.30;;;;;;5056154;28;21054;-91
2022/01/20 08:23:54;;;;;;;12.73;3.13;;;7.70;62.40;;;;;;5024837;28;20498;-89
2022/01/20 08:26:22;;;;;;;7.03;3.03;;;7.60;62.00;;;;;;5037568;28;20455;-90
2022/01/20 08:28:49;;;;;;;5.03;3.53;;;7.70;61.90;;;;;;5054290;28;20542;-90
2022/01/20 08:31:16;;;;;;;9.23;2.50;;;7.90;62.00;;;;;;5055869;28;20456;-90
2022/01/20 08:33:46;;;;;;;6.00;3.53;;;8.10;61.60;;;;;;5066081;28;20487;-91
2022/01/20 08:36:18;;;;;;;6.27;2.30;;;8.00;60.80;;;;;;5031593;28;20463;-89
2022/01/20 08:38:53;;;;;;;13.33;3.67;;;7.80;60.60;;;;;;5049034;28;20561;-89
2022/01/20 08:41:20;;;;;;;6.20;3.40;;;7.70;61.60;;;;;;5055351;28;20488;-89
2022/01/20 08:43:47;;;;;;;8.67;2.47;;;7.60;62.60;;;;;;5063116;28;20457;-91
2022/01/20 08:46:16;;;;;;;6.33;2.10;;;7.40;62.60;;;;;;5057546;28;20944;-90
2022/01/20 08:48:45;;;;;;;10.20;2.63;;;7.30;62.30;;;;;;5039133;28;20456;-90
2022/01/20 08:51:21;;;;;;;7.63;3.00;;;7.40;63.40;;;;;;5044563;28;20448;-89
2022/01/20 08:53:56;;;;;;;15.53;3.20;;;7.60;62.90;;;;;;5049023;28;20995;-90
2022/01/20 08:56:26;;;;;;;4.23;2.47;;;7.70;62.30;;;;;;5061208;28;20686;-91
2022/01/20 08:58:53;;;;;;;2.67;2.47;;;7.80;62.10;;;;;;5057426;28;20980;-91
2022/01/20 09:01:21;;;;;;;6.17;2.70;;;7.90;61.40;;;;;;5057270;28;20456;-88
2022/01/20 09:03:49;;;;;;;7.10;2.43;;;7.80;61.10;;;;;;5043299;28;20453;-90
2022/01/20 09:06:18;;;;;;;4.70;1.83;;;7.90;61.70;;;;;;5057791;28;20501;-90
2022/01/20 09:08:57;;;;;;;5.33;1.40;;;7.80;61.90;;;;;;5040091;28;20844;-90
2022/01/20 09:11:30;;;;;;;4.80;1.93;;;7.70;61.20;;;;;;5058162;28;20463;-91
2022/01/20 09:16:51;;;;;;;14.80;2.80;;;7.70;61.60;;;;;;5058132;28;20472;-90
2022/01/20 09:19:25;;;;;;;2.80;2.40;;;7.70;61.90;;;;;;5060953;28;20463;-90
2022/01/20 09:21:57;;;;;;;4.00;1.70;;;7.80;61.40;;;;;;5039943;28;20559;-91
2022/01/20 09:24:26;;;;;;;5.37;2.37;;;7.70;60.40;;;;;;5047311;28;20460;-91
2022/01/20 09:26:54;;;;;;;8.13;2.30;;;7.70;61.70;;;;;;5030812;28;20452;-90
2022/01/20 09:29:22;;;;;;;11.13;6.40;;;7.80;61.50;;;;;;5041249;28;20480;-90
2022/01/20 09:31:50;;;;;;;6.50;2.80;;;7.80;61.00;;;;;;5058794;28;20696;-90
2022/01/20 09:34:21;;;;;;;1.80;1.50;;;7.90;61.60;;;;;;5027000;28;20476;-89
2022/01/20 09:36:49;;;;;;;11.20;5.47;;;7.80;61.10;;;;;;5047898;28;20463;-86
2022/01/20 09:39:16;;;;;;;3.17;1.70;;;7.60;62.30;;;;;;5074291;28;20985;-90
2022/01/20 09:41:54;;;;;;;2.70;1.73;;;7.50;62.40;;;;;;5041238;28;20489;-88
2022/01/20 09:44:22;;;;;;;2.17;1.87;;;7.70;62.70;;;;;;5062611;28;20460;-90
2022/01/20 09:46:49;;;;;;;3.73;2.10;;;7.80;62.80;;;;;;5037276;28;20544;-90
2022/01/20 09:49:30;;;;;;;2.07;1.90;;;7.70;62.30;;;;;;5048244;28;20940;-91
2022/01/20 09:52:01;;;;;;;6.10;2.20;;;7.50;62.50;;;;;;5025223;28;20563;-90
2022/01/20 09:54:40;;;;;;;6.13;1.70;;;7.50;62.50;;;;;;5032988;28;20920;-90
2022/01/20 09:57:17;;;;;;;3.37;1.77;;;7.70;62.10;;;;;;5026015;28;20448;-90
2022/01/20 09:59:45;;;;;;;2.10;1.67;;;7.60;63.10;;;;;;5048234;28;20465;-91
2022/01/20 10:02:18;;;;;;;5.00;2.00;;;7.60;63.60;;;;;;5062868;28;20477;-90
2022/01/20 10:04:45;;;;;;;3.00;1.60;;;7.30;63.60;;;;;;5041038;28;20455;-94
2022/01/20 10:07:22;;;;;;;10.20;2.33;;;7.40;64.40;;;;;;5031105;28;20471;-88
2022/01/20 10:10:00;;;;;;;5.00;3.97;;;7.50;63.70;;;;;;5029156;28;20818;-93
2022/01/20 10:12:38;;;;;;;2.10;1.40;;;7.50;63.60;;;;;;5039348;28;20476;-91
2022/01/20 10:15:10;;;;;;;7.13;1.30;;;7.10;64.10;;;;;;5054914;28;20487;-89
2022/01/20 10:17:48;;;;;;;2.70;1.80;;;7.10;64.50;;;;;;5058744;28;20590;-90
2022/01/20 10:20:21;;;;;;;2.80;2.00;;;7.30;65.20;;;;;;5057396;28;20544;-90
2022/01/20 10:22:57;;;;;;;4.20;1.70;;;7.30;64.60;;;;;;5043203;28;20558;-91
2022/01/20 10:25:46;;;;;;;2.40;2.20;;;7.40;64.30;;;;;;5045050;28;20466;-89
2022/01/20 10:28:19;;;;;;;3.67;1.30;;;7.50;63.90;;;;;;5044761;28;20457;-92
2022/01/20 10:30:49;;;;;;;2.50;2.40;;;7.60;63.00;;;;;;5061653;28;20467;-91
2022/01/20 10:33:17;;;;;;;1.40;1.30;;;7.60;63.70;;;;;;5066212;28;20490;-91
2022/01/20 10:35:46;;;;;;;3.20;1.40;;;7.50;62.10;;;;;;5057624;28;20504;-89
2022/01/20 10:38:49;;;;;;;2.10;1.63;;;7.50;61.20;;;;;;5047409;28;20472;-89
2022/01/20 10:41:27;;;;;;;3.83;1.70;;;7.60;61.50;;;;;;5050126;28;20546;-88
2022/01/20 10:44:02;;;;;;;5.07;1.50;;;7.40;59.60;;;;;;5058764;28;20478;-88
2022/01/20 10:46:45;;;;;;;2.50;1.80;;;7.40;59.40;;;;;;5058293;28;20457;-88
2022/01/20 10:49:15;;;;;;;1.90;1.77;;;7.40;58.50;;;;;;5062217;28;20582;-89
2022/01/20 10:52:03;;;;;;;2.23;1.63;;;7.30;58.80;;;;;;5053898;28;20511;-88
2022/01/20 10:54:39;;;;;;;4.50;1.47;;;7.40;57.80;;;;;;5049907;28;21006;-88
2022/01/20 10:57:08;;;;;;;2.17;1.50;;;7.50;58.40;;;;;;5044973;28;20474;-88
2022/01/20 10:59:46;;;;;;;5.60;1.83;;;7.60;57.90;;;;;;5083503;28;20969;-87
2022/01/20 11:02:13;;;;;;;2.30;1.53;;;7.70;58.10;;;;;;5040051;28;20990;-90
2022/01/20 11:04:41;;;;;;;6.37;2.03;;;7.50;56.70;;;;;;5076759;28;20459;-89
2022/01/20 11:07:11;;;;;;;4.53;2.23;;;7.50;55.80;;;;;;5063384;28;20461;-88
2022/01/20 11:09:46;;;;;;;4.20;1.80;;;7.80;57.10;;;;;;5035091;28;20458;-89
2022/01/20 11:12:42;;;;;;;2.80;1.50;;;7.80;53.90;;;;;;5048669;28;20509;-88
2022/01/20 11:15:19;;;;;;;14.80;1.40;;;7.60;52.90;;;;;;5053431;28;20551;-88
2022/01/20 11:17:52;;;;;;;2.70;2.13;;;7.50;53.50;;;;;;5068349;28;20491;-89
2022/01/20 11:20:23;;;;;;;5.13;2.03;;;7.70;55.00;;;;;;5058472;28;20449;-87
2022/01/20 11:22:52;;;;;;;4.43;1.10;;;7.70;53.00;;;;;;5051972;28;20483;-89
2022/01/20 11:25:23;;;;;;;10.20;2.93;;;7.60;50.80;;;;;;5057136;28;20452;-88
2022/01/20 11:28:07;;;;;;;11.67;5.77;;;7.60;51.50;;;;;;5023579;28;20448;-91
2022/01/20 11:30:54;;;;;;;4.50;2.17;;;7.60;52.40;;;;;;5038988;28;20558;-90
2022/01/20 11:33:34;;;;;;;10.13;1.93;;;7.60;52.60;;;;;;5072270;28;20485;-91
2022/01/20 11:36:01;;;;;;;3.57;2.13;;;7.80;52.50;;;;;;5048968;28;20586;-91
2022/01/20 11:38:39;;;;;;;3.87;1.67;;;8.00;52.70;;;;;;5062392;28;20538;-91
2022/01/20 11:41:07;;;;;;;2.90;1.87;;;8.10;52.00;;;;;;5075479;28;21020;-91
2022/01/20 11:43:38;;;;;;;1.97;1.70;;;8.10;50.80;;;;;;5074599;28;20780;-91
2022/01/20 11:46:12;;;;;;;4.30;1.47;;;8.10;50.20;;;;;;5057265;28;20456;-90
2022/01/20 11:48:54;;;;;;;2.70;1.50;;;7.90;47.90;;;;;;5056694;28;20531;-90
2022/01/20 11:51:22;;;;;;;5.60;2.17;;;7.80;46.20;;;;;;5030522;28;20464;-92
2022/01/20 11:53:59;;;;;;;2.63;1.43;;;7.90;47.90;;;;;;5055107;28;20452;-90
2022/01/20 11:56:33;;;;;;;7.10;2.03;;;7.80;47.40;;;;;;5074979;28;20508;-91
2022/01/20 11:59:00;;;;;;;2.80;1.80;;;8.10;48.20;;;;;;5040232;28;20547;-90
2022/01/20 12:01:30;;;;;;;4.93;1.80;;;8.10;48.00;;;;;;5058253;28;20463;-89
2022/01/20 12:03:57;;;;;;;7.37;1.40;;;8.30;49.00;;;;;;5041134;28;20461;-90
2022/01/20 12:06:43;;;;;;;2.30;2.17;;;8.50;49.10;;;;;;5057794;28;20479;-90
2022/01/20 12:09:17;;;;;;;2.30;1.43;;;8.50;48.40;;;;;;5059377;28;20519;-90
2022/01/20 12:11:47;;;;;;;4.30;1.20;;;8.30;47.70;;;;;;5034014;28;20482;-91
2022/01/20 12:14:27;;;;;;;3.27;1.83;;;8.00;47.80;;;;;;5049093;28;20479;-90
2022/01/20 12:17:05;;;;;;;7.93;2.10;;;7.90;48.30;;;;;;5075425;28;20451;-91
2022/01/20 12:19:33;;;;;;;2.87;1.83;;;7.90;48.90;;;;;;5057901;28;20456;-87
2022/01/20 12:22:02;;;;;;;17.30;2.10;;;8.00;50.40;;;;;;5073560;28;21104;-90
2022/01/20 12:24:29;;;;;;;6.73;1.80;;;8.10;49.70;;;;;;5062295;28;20459;-91
2022/01/20 12:26:57;;;;;;;4.30;1.70;;;7.90;48.90;;;;;;5075467;28;20555;-88
2022/01/20 12:29:33;;;;;;;1.40;1.23;;;8.00;49.70;;;;;;5076095;28;20536;-91
2022/01/20 12:32:01;;;;;;;2.90;1.37;;;7.90;49.00;;;;;;5073507;28;20639;-91
2022/01/20 12:34:28;;;;;;;4.90;1.30;;;7.90;48.90;;;;;;5074994;28;20464;-89
2022/01/20 12:36:57;;;;;;;4.37;1.40;;;7.80;48.70;;;;;;5073246;28;20549;-89
2022/01/20 12:39:26;;;;;;;4.33;1.20;;;7.70;49.90;;;;;;5059560;28;20546;-90
2022/01/20 12:42:00;;;;;;;5.00;1.20;;;7.80;49.60;;;;;;5076027;28;20472;-89
2022/01/20 12:44:39;;;;;;;2.23;1.10;;;8.10;48.60;;;;;;5076998;28;20445;-88
2022/01/20 12:47:06;;;;;;;3.93;1.53;;;8.30;47.80;;;;;;5072809;28;20662;-89
2022/01/20 12:49:33;;;;;;;3.60;1.47;;;8.30;48.00;;;;;;5047244;28;20494;-90
2022/01/20 12:52:00;;;;;;;3.97;1.83;;;8.30;47.50;;;;;;5073235;28;20565;-90
2022/01/20 12:54:29;;;;;;;3.73;1.37;;;8.40;46.70;;;;;;5046188;28;20479;-90
2022/01/20 12:57:02;;;;;;;3.80;2.47;;;8.40;46.50;;;;;;5080215;28;20448;-91
2022/01/20 12:59:31;;;;;;;3.80;1.53;;;8.70;47.90;;;;;;5042404;28;20544;-89
2022/01/20 13:02:01;;;;;;;5.67;1.20;;;9.00;48.10;;;;;;5061978;28;20475;-90
2022/01/20 13:04:30;;;;;;;3.80;1.40;;;9.20;45.80;;;;;;5065934;28;20751;-91
2022/01/20 13:07:00;;;;;;;2.20;1.10;;;9.10;45.70;;;;;;5080352;28;20455;-88
2022/01/20 13:09:38;;;;;;;5.73;1.00;;;9.00;44.40;;;;;;5051552;28;21071;-89
2022/01/20 13:12:08;;;;;;;5.17;2.17;;;9.10;44.10;;;;;;5048795;28;20475;-92
2022/01/20 13:14:38;;;;;;;3.23;1.60;;;9.20;45.10;;;;;;5059009;28;20480;-90
2022/01/20 13:17:07;;;;;;;5.63;2.23;;;9.10;44.10;;;;;;5046743;28;20556;-91
2022/01/20 13:19:37;;;;;;;6.40;1.67;;;9.30;45.60;;;;;;5052466;28;20531;-89
2022/01/20 13:22:06;;;;;;;8.17;2.33;;;9.40;45.40;;;;;;5047582;28;21113;-90
2022/01/20 13:24:35;;;;;;;2.90;1.47;;;9.30;44.20;;;;;;5082600;28;20512;-89
2022/01/20 13:27:06;;;;;;;3.00;1.50;;;8.80;45.00;;;;;;5064241;28;20463;-89
2022/01/20 13:29:43;;;;;;;2.67;1.63;;;8.50;46.00;;;;;;5084141;28;20469;-87
2022/01/20 13:32:10;;;;;;;1.50;1.23;;;8.20;48.80;;;;;;5084592;28;20963;-91
2022/01/20 13:34:38;;;;;;;8.10;2.03;;;8.00;51.20;;;;;;5091970;28;20973;-91
2022/01/20 13:37:05;;;;;;;3.63;2.27;;;7.70;53.00;;;;;;5047262;28;20467;-91
2022/01/20 13:39:34;;;;;;;5.80;2.63;;;7.50;55.20;;;;;;5077778;28;20553;-91
2022/01/20 13:42:08;;;;;;;18.60;8.27;;;7.50;55.70;;;;;;5034344;28;20499;-91
2022/01/20 13:47:21;;;;;;;14.27;2.80;;;7.60;54.90;;;;;;5028629;28;21018;-88
2022/01/20 13:49:52;;;;;;;15.30;2.47;;;7.60;54.40;;;;;;5052518;28;20452;-91
2022/01/20 13:52:20;;;;;;;5.43;2.47;;;7.70;54.40;;;;;;5038003;28;20524;-91
2022/01/20 13:54:50;;;;;;;5.20;2.53;;;7.70;54.00;;;;;;5035275;28;20561;-90
2022/01/20 13:57:19;;;;;;;4.90;1.93;;;7.70;54.20;;;;;;5065469;28;20457;-90
2022/01/20 13:59:52;;;;;;;5.63;2.27;;;7.60;53.00;;;;;;5038668;28;20465;-92
2022/01/20 14:02:21;;;;;;;9.40;1.70;;;7.60;53.60;;;;;;5045563;28;20477;-89
2022/01/20 14:04:49;;;;;;;3.73;1.83;;;7.60;52.90;;;;;;5047559;28;20687;-90
2022/01/20 14:07:16;;;;;;;8.90;2.80;;;7.70;53.00;;;;;;5074369;28;21051;-91
2022/01/20 14:09:43;;;;;;;14.10;4.60;;;7.90;53.20;;;;;;5053377;28;20461;-90
2022/01/20 14:12:11;;;;;;;5.07;4.07;;;8.20;52.70;;;;;;5085409;28;20523;-91